»·PEaware :: MXD260 KBUR-KLAS

MXD260 :: KBUR-KLAS

FLIGHT INFORMATION

Flight Status: Arrived
Operator: Unknown
More flights by this operator :: More flights under this callsign
Pilot: Gopalakrishna S. (22834)
Aircraft: BOEING 737-800
(B738)
More flights by this aircraft type
Origin: KBUR Bob Hope-Burbank
United States
Destination: KLAS McCarran Intl
United States
More flights between these airports :: More routes between these airports
Route: SLAPP1 MISEN KEPEC6
File this flight plan on PilotEdge
Remarks: NO TEST
Altitude:
(Current/Filed)
19,000ft
Speed:
(Current/Filed)
300kts
Departed: 30-Mar-19 08:33 PM
Arrived: 30-Mar-19 09:24 PM
Distance/Time
Traveled:
194nm/0:51
Distance/Time
To Go:
Arrived

Flight Plot

Page will automatically refresh every two minutes.


Map Options




Map Legend


Flown Route
Filed Route
Departure Airport
Arrival Airport
Navaid (VOR, NDB)
Fix

Horizontal Profiles

Position Reports

Time Latitude Longitude Heading Altitude Ground
Speed
30-Mar-19 20:09 34.196780 -118.352375 180 701ft 0kts
30-Mar-19 20:10 34.196780 -118.352375 180 701ft 0kts
30-Mar-19 20:11 34.196780 -118.352375 180 701ft 0kts
30-Mar-19 20:13 34.196780 -118.352375 180 701ft 0kts
30-Mar-19 20:14 34.196780 -118.352375 180 701ft 0kts
30-Mar-19 20:15 34.196780 -118.352375 180 701ft 0kts
30-Mar-19 20:16 34.196780 -118.352375 180 701ft 0kts
30-Mar-19 20:17 34.196780 -118.352375 180 701ft 0kts
30-Mar-19 20:18 34.196780 -118.352375 180 701ft 0kts
30-Mar-19 20:19 34.196780 -118.352375 180 701ft 0kts
30-Mar-19 20:20 34.196780 -118.352375 180 701ft 0kts
30-Mar-19 20:21 34.196780 -118.352375 180 701ft 0kts
30-Mar-19 20:22 34.196905 -118.352369 184 701ft 2kts
30-Mar-19 20:23 34.197388 -118.352340 180 701ft 0kts
30-Mar-19 20:24 34.197387 -118.352340 180 701ft 0kts
30-Mar-19 20:25 34.197387 -118.352340 180 701ft 0kts
30-Mar-19 20:26 34.197387 -118.352340 180 701ft 0kts
30-Mar-19 20:27 34.197218 -118.354977 275 707ft 12kts
30-Mar-19 20:28 34.203136 -118.356563 346 728ft 40kts
30-Mar-19 20:29 34.211723 -118.359158 314 767ft 0kts
30-Mar-19 20:30 34.211723 -118.359158 314 767ft 0kts
30-Mar-19 20:31 34.211723 -118.359158 314 767ft 0kts
30-Mar-19 20:32 34.211008 -118.360090 169 768ft 18kts
30-Mar-19 20:33 34.172991 -118.351771 190 2340ft 193kts
30-Mar-19 20:34 34.122157 -118.394598 222 4147ft 241kts
30-Mar-19 20:35 34.073406 -118.450778 249 5850ft 245kts
30-Mar-19 20:35 34.095440 -118.501289 358 7370ft 248kts
30-Mar-19 20:37 34.177445 -118.467890 19 9751ft 276kts
30-Mar-19 20:38 34.249388 -118.433797 18 11750ft 282kts
30-Mar-19 20:38 34.312584 -118.403854 17 13557ft 315kts
30-Mar-19 20:40 34.413436 -118.355856 16 16142ft 343kts
30-Mar-19 20:40 34.484927 -118.312236 32 17974ft 361kts
30-Mar-19 20:41 34.564105 -118.231792 34 19150ft 388kts
30-Mar-19 20:42 34.647481 -118.135505 51 19149ft 427kts
30-Mar-19 20:43 34.687277 -117.997225 74 19142ft 438kts
30-Mar-19 20:45 34.700806 -117.821782 82 19140ft 449kts
30-Mar-19 20:45 34.707332 -117.696308 83 19140ft 449kts
30-Mar-19 20:46 34.712943 -117.545234 83 19141ft 450kts
30-Mar-19 20:47 34.742517 -117.401225 67 19160ft 437kts
30-Mar-19 20:48 34.780166 -117.260021 68 19156ft 442kts
30-Mar-19 20:49 34.817551 -117.118600 68 19143ft 438kts
30-Mar-19 20:50 34.854928 -116.976372 68 19141ft 441kts
30-Mar-19 20:51 34.892077 -116.834149 68 19146ft 440kts
30-Mar-19 20:52 34.935816 -116.696393 52 19149ft 434kts
30-Mar-19 20:53 35.005283 -116.576315 50 19150ft 434kts
30-Mar-19 20:54 35.073366 -116.455386 50 19176ft 433kts
30-Mar-19 20:55 35.149613 -116.341916 37 19179ft 429kts
30-Mar-19 20:56 35.234429 -116.238700 41 19173ft 434kts
30-Mar-19 20:57 35.318583 -116.132785 40 19173ft 436kts
30-Mar-19 20:58 35.401536 -116.028075 40 19177ft 431kts
30-Mar-19 20:59 35.484711 -115.922837 40 19171ft 427kts
30-Mar-19 21:00 35.567291 -115.818010 40 19173ft 429kts
30-Mar-19 21:01 35.644898 -115.718789 39 19166ft 366kts
30-Mar-19 21:02 35.709734 -115.635862 38 19180ft 316kts
30-Mar-19 21:03 35.781351 -115.578079 4 17481ft 307kts
30-Mar-19 21:04 35.864825 -115.569859 357 15411ft 301kts
30-Mar-19 21:05 35.946888 -115.554986 22 13329ft 310kts
30-Mar-19 21:06 35.999672 -115.473045 64 11246ft 306kts
30-Mar-19 21:07 36.028724 -115.377592 78 9135ft 289kts
30-Mar-19 21:08 36.025243 -115.290004 93 9024ft 234kts
30-Mar-19 21:09 36.019032 -115.207200 91 8318ft 255kts
30-Mar-19 21:10 36.013245 -115.123750 90 8032ft 231kts
30-Mar-19 21:11 36.008069 -115.043450 90 7998ft 238kts
30-Mar-19 21:12 36.003106 -114.958999 91 7084ft 253kts
30-Mar-19 21:13 35.997853 -114.876047 91 5988ft 219kts
30-Mar-19 21:14 35.993250 -114.804101 90 5998ft 207kts
30-Mar-19 21:15 36.012031 -114.751136 2 6005ft 160kts
30-Mar-19 21:16 36.043431 -114.779701 307 6021ft 144kts
30-Mar-19 21:17 36.067997 -114.822775 308 5996ft 153kts
30-Mar-19 21:18 36.073353 -114.874975 274 5988ft 151kts
30-Mar-19 21:19 36.073516 -114.930271 273 5216ft 166kts
30-Mar-19 21:20 36.073596 -114.987181 272 4296ft 165kts
30-Mar-19 21:21 36.073641 -115.043972 271 3399ft 164kts
30-Mar-19 21:22 36.073690 -115.096170 270 2437ft 148kts
30-Mar-19 21:23 36.073822 -115.135890 331 2074ft 12kts
30-Mar-19 21:24 36.074510 -115.134960 60 2069ft 0kts
30-Mar-19 21:25 36.074920 -115.134145 44 2066ft 10kts
30-Mar-19 21:26 36.077439 -115.133780 5 2062ft 1kts
30-Mar-19 21:27 36.078023 -115.133752 0 2060ft 5kts
30-Mar-19 21:28 36.083131 -115.133752 0 2050ft 20kts
30-Mar-19 21:29 36.085301 -115.133757 359 2046ft 0kts
30-Mar-19 21:30 36.085301 -115.133757 359 2046ft 0kts

Navigation Log

Ident Type
Flight plan parsing failed, navigation log unavailable